Terminal Aerodrome Forecast
Issued by NWS Quad Cities IA IL

Home | Current Version | Previous Version | Text Only | Print | Product List | Glossary On
Versions: 1 2 3 4 5 6 7 8 9 10 11 12 13 14 15 16 17 18 19 20 21 22 23
411
FTUS43 KDVN 280520
TAFDBQ
TAF
KDBQ 280520Z 2806/2906 VRB03KT P6SM BKN250
     FM281200 05006KT P6SM OVC060
     FM281700 06013KT 5SM -RA BR OVC025
     FM290000 04011KT P6SM VCSH OVC015=

USA.gov is the U.S. government's official web portal to all federal, state and local government web resources and services.